Latest Weather Observations for Clare

IDS60801

Issued at 6:32 pm CST Sunday 24 May 2015 (issued every 30 minutes, with the page automatically refreshed every 10 minutes)

About weather observations | Map of weather stations | Latest weather observations for SA | Other Formats
Station Details ID: 021131 Name: CLARE HIGH SCHOOL Lat: -33.82 Lon: 138.59 Height: 395.0 m
Data from the previous 72 hours. | See also: Recent months at Clare
Date/Time
CST
Temp
°C
App
Temp
°C
Dew
Point
Rel
Hum
%
Delta-T
°C
Wind Press
QNH
hPa
Press
MSL
hPa
Rain
since 9 am
mm
Dir
 
Spd
km/h
Gust
km/h
Spd
kts
Gust
kts
24/06:30pm 11.4 9.5 6.7 73 2.3 NW 6 9 3 5 1029.0 - 0.0
24/06:00pm 11.3 9.8 7.0 75 2.1 SE 4 11 2 6 1028.2 1028.3 0.0
24/05:30pm 11.5 10.6 7.8 78 1.8 W 2 7 1 4 1028.4 - 0.0
24/05:00pm 12.4 11.8 7.3 71 2.5 CALM 0 0 0 0 1027.7 - 0.0
24/04:30pm 13.1 12.5 7.3 68 2.9 CALM 0 0 0 0 1027.9 - 0.0
24/04:00pm 13.7 13.0 6.8 63 3.4 CALM 0 0 0 0 1027.9 - 0.0
24/03:30pm 14.5 12.8 5.8 56 4.2 WNW 4 9 2 5 1027.7 - 0.0
24/03:00pm 14.9 12.2 5.4 53 4.6 WNW 9 13 5 7 1027.8 1027.9 0.0
24/02:30pm 15.9 13.2 5.8 51 5.0 WNW 9 13 5 7 1027.6 - 0.0
24/02:00pm 14.7 11.9 5.0 52 4.6 NW 9 19 5 10 1027.6 - 0.0
24/01:30pm 14.5 11.9 6.3 58 4.0 NW 9 13 5 7 1027.8 - 0.0
24/01:00pm 13.5 11.4 6.8 64 3.3 NNW 7 13 4 7 1028.0 - 0.0
24/12:30pm 12.1 9.6 6.4 68 2.8 N 9 13 5 7 1028.3 - 0.0
24/12:00pm 11.6 9.1 6.7 72 2.4 N 9 15 5 8 1028.5 1028.6 0.0
24/11:30am 11.7 9.2 6.6 71 2.5 NNE 9 13 5 7 1029.0 - 0.0
24/11:00am 12.2 8.9 6.3 67 2.9 N 13 19 7 10 1029.3 - 0.0
24/10:30am 12.2 9.9 7.3 72 2.4 NNE 9 15 5 8 1029.4 - 0.0
24/10:00am 10.8 8.4 5.3 69 2.6 NNE 7 15 4 8 1029.3 - 0.0
24/09:30am 9.6 7.2 5.4 75 2.0 NNE 7 13 4 7 1029.2 - 0.0
24/09:00am 9.5 7.1 5.3 75 1.9 NE 7 15 4 8 1029.1 1029.2 0.2
24/08:30am 8.5 6.0 4.9 78 1.6 NE 7 13 4 7 1029.0 - 0.2
24/08:00am 8.0 5.7 4.8 80 1.4 E 6 9 3 5 1028.7 - 0.2
24/07:30am 7.3 5.4 4.8 84 1.1 E 4 11 2 6 1028.5 - 0.2
24/07:00am 7.5 4.6 4.8 83 1.2 E 9 11 5 6 1028.3 - 0.2
24/06:30am 7.3 4.8 4.9 85 1.1 ENE 7 9 4 5 1028.2 - 0.2
24/05:30am 6.3 5.1 4.6 89 0.8 CALM 0 0 0 0 1027.9 - 0.2
24/05:00am 6.6 5.5 5.1 90 0.7 CALM 0 0 0 0 1027.8 - 0.2
24/04:30am 6.9 5.4 4.9 87 0.9 E 2 7 1 4 1027.9 - 0.2
24/04:00am 6.4 5.3 4.9 90 0.7 CALM 0 4 0 2 1027.7 - 0.2
24/03:30am 7.1 4.9 5.4 89 0.8 ENE 6 11 3 6 1027.7 - 0.2
24/03:00am 6.6 4.3 5.9 95 0.3 E 7 11 4 6 1027.8 1027.9 0.2
24/02:30am 5.5 4.2 4.3 92 0.5 CALM 0 0 0 0 1028.0 - 0.2
24/02:00am 6.2 3.8 5.3 94 0.4 E 7 9 4 5 1027.9 - 0.2
24/01:30am 6.4 4.6 5.5 94 0.4 NE 4 9 2 5 1028.0 - 0.2
24/01:00am 6.8 4.7 5.6 92 0.5 E 6 9 3 5 1028.1 - 0.2
24/12:30am 6.9 4.7 5.1 88 0.8 NE 6 13 3 7 1028.2 - 0.2
24/12:00am 8.0 5.9 5.6 85 1.1 ENE 6 9 3 5 1028.4 1028.5 0.2
 
Date/Time
CST
Temp
°C
App
Temp
°C
Dew
Point
Rel
Hum
%
Delta-T
°C
Wind Press
QNH
hPa
Press
MSL
hPa
Rain
since 9 am
mm
Dir
 
Spd
km/h
Gust
km/h
Spd
kts
Gust
kts
23/11:30pm 8.3 6.0 5.8 84 1.2 ENE 7 11 4 6 1028.4 - 0.2
23/11:00pm 8.4 5.7 5.7 83 1.3 ENE 9 15 5 8 1028.3 - 0.2
23/10:30pm 8.3 4.9 5.9 85 1.1 E 13 17 7 9 1028.4 - 0.2
23/10:00pm 8.3 5.3 5.9 85 1.1 E 11 19 6 10 1028.8 - 0.2
23/09:30pm 8.1 5.1 6.1 87 0.9 E 11 15 6 8 1029.0 - 0.2
23/09:00pm 8.4 6.3 5.9 84 1.2 E 6 13 3 7 1029.3 1029.4 0.2
23/08:30pm 9.1 6.6 6.4 83 1.3 E 9 15 5 8 1029.0 - 0.2
23/08:00pm 9.4 6.5 6.5 82 1.4 E 11 17 6 9 1028.5 - 0.2
23/07:30pm 9.6 6.7 6.3 80 1.6 E 11 17 6 9 1028.7 - 0.2
23/07:00pm 10.1 7.2 6.4 78 1.8 E 11 17 6 9 1028.7 - 0.2
23/06:30pm 10.4 8.5 6.7 78 1.8 E 6 9 3 5 1028.5 - 0.2
23/06:00pm 10.7 9.2 6.8 77 1.9 ESE 4 7 2 4 1028.7 1028.7 0.2
23/05:30pm 11.7 11.0 6.8 72 2.4 CALM 0 6 0 3 1028.7 - 0.2
23/05:00pm 13.0 11.1 6.8 66 3.0 E 6 9 3 5 1028.5 - 0.2
23/04:30pm 13.6 11.9 7.6 67 3.0 E 6 11 3 6 1028.4 - 0.2
23/04:00pm 14.0 12.1 6.8 62 3.6 ENE 6 9 3 5 1028.3 - 0.2
23/03:30pm 15.2 13.7 6.7 57 4.2 NNE 4 15 2 8 1028.5 - 0.2
23/03:00pm 14.4 12.7 6.0 57 4.1 N 4 9 2 5 1028.7 1028.7 0.2
23/02:30pm 15.6 13.4 6.3 54 4.6 NW 7 13 4 7 1028.5 - 0.2
23/02:00pm 14.6 12.4 6.4 58 4.0 ENE 7 13 4 7 1028.7 - 0.0
23/01:30pm 14.9 12.8 6.5 57 4.2 ENE 7 11 4 6 1029.0 - 0.0
23/01:00pm 14.9 13.2 6.0 55 4.4 N 4 9 2 5 1029.2 - 0.0
23/12:30pm 14.0 11.9 6.6 61 3.6 NNE 7 13 4 7 1029.7 - 0.0
23/12:00pm 13.6 11.3 7.4 66 3.1 ENE 9 15 5 8 1030.3 1030.4 0.0
23/11:30am 13.3 11.6 8.2 71 2.6 NNE 7 13 4 7 1030.7 - 0.0
23/11:00am 12.4 10.1 7.3 71 2.5 ENE 9 13 5 7 1031.1 - 0.0
23/10:30am 11.7 8.9 7.0 73 2.3 ENE 11 15 6 8 1031.5 - 0.0
23/10:00am 12.1 9.7 7.2 72 2.4 NE 9 13 5 7 1031.5 - 0.0
23/09:30am 11.0 9.1 6.6 74 2.1 NNE 6 11 3 6 1031.6 - 0.0
23/09:00am 9.8 7.5 5.6 75 1.9 NE 7 13 4 7 1031.4 1031.5 0.0
23/08:30am 8.5 5.3 5.1 79 1.6 E 11 15 6 8 1031.0 - 0.0
23/08:00am 6.9 4.4 4.7 86 1.0 E 7 11 4 6 1030.9 - 0.0
23/07:30am 6.1 3.8 4.6 90 0.7 E 6 9 3 5 1030.9 - 0.0
23/07:00am 5.6 3.9 4.2 91 0.6 E 2 7 1 4 1030.7 - 0.0
23/06:30am 5.6 3.6 4.2 91 0.6 ESE 4 9 2 5 1030.5 - 0.0
23/06:00am 6.0 4.0 4.2 88 0.8 E 4 9 2 5 1030.2 1030.3 0.0
23/05:30am 6.3 3.7 4.3 87 0.9 E 7 13 4 7 1030.1 - 0.0
23/05:00am 6.3 3.4 4.5 88 0.8 E 9 15 5 8 1030.1 - 0.0
23/04:30am 6.3 3.4 4.5 88 0.8 E 9 15 5 8 1030.0 - 0.0
23/04:00am 6.5 3.2 4.5 87 0.9 E 11 17 6 9 1030.0 - 0.0
23/03:30am 6.5 2.8 4.5 87 0.9 E 13 22 7 12 1030.1 - 0.0
23/03:00am 6.4 3.5 4.6 88 0.8 E 9 20 5 11 1030.1 1030.2 0.0
23/02:30am 6.7 3.8 4.7 87 0.9 E 9 17 5 9 1030.3 - 0.0
23/02:00am 6.9 4.4 4.7 86 1.0 E 7 13 4 7 1030.5 - 0.0
23/01:30am 7.1 4.2 4.9 86 1.0 E 9 15 5 8 1030.3 - 0.0
23/01:00am 7.4 4.2 5.2 86 1.0 E 11 20 6 11 1030.2 - 0.0
23/12:30am 7.5 4.3 5.3 86 1.0 E 11 20 6 11 1030.4 - 0.0
23/12:00am 7.6 4.9 5.4 86 1.0 SE 9 17 5 9 1030.3 1030.4 0.0
 
Date/Time
CST
Temp
°C
App
Temp
°C
Dew
Point
Rel
Hum
%
Delta-T
°C
Wind Press
QNH
hPa
Press
MSL
hPa
Rain
since 9 am
mm
Dir
 
Spd
km/h
Gust
km/h
Spd
kts
Gust
kts
22/11:30pm 7.7 4.6 5.5 86 1.0 ESE 11 19 6 10 1030.2 - 0.0
22/11:00pm 7.7 4.2 5.3 85 1.1 ESE 13 24 7 13 1030.2 - 0.0
22/10:30pm 7.6 4.9 5.4 86 1.0 E 9 15 5 8 1030.4 - 0.0
22/10:00pm 6.9 5.4 4.9 87 0.9 ESE 2 9 1 5 1030.7 - 0.0
22/09:30pm 6.5 5.3 4.7 88 0.8 CALM 0 0 0 0 1030.8 - 0.0
22/09:00pm 7.4 6.3 5.0 85 1.1 CALM 0 0 0 0 1030.8 1030.9 0.0
22/08:30pm 9.3 7.5 5.5 77 1.8 ESE 4 11 2 6 1031.0 - 0.0
22/08:00pm 10.1 8.7 5.7 74 2.1 E 2 7 1 4 1031.1 - 0.0
22/07:30pm 10.2 8.9 6.0 75 2.0 ESE 2 9 1 5 1031.0 - 0.0
22/07:00pm 10.4 8.3 6.0 74 2.1 SE 6 13 3 7 1031.1 - 0.0
22/06:30pm 10.3 8.2 5.9 74 2.1 SE 6 13 3 7 1030.7 - 0.0
22/06:00pm 10.4 8.4 6.2 75 2.0 SE 6 15 3 8 1030.3 1030.4 0.0
22/05:30pm 10.5 8.3 6.1 74 2.1 SE 7 11 4 6 1030.0 - 0.0
22/05:00pm 10.9 8.8 6.5 74 2.1 SE 7 19 4 10 1030.1 - 0.0
22/04:30pm 11.1 8.6 6.5 73 2.2 ESE 9 17 5 9 1030.1 - 0.0
22/04:00pm 11.3 8.9 6.8 74 2.2 SSE 9 15 5 8 1030.2 - 0.0
22/03:30pm 11.4 9.4 6.9 74 2.2 ESE 7 13 4 7 1030.3 - 0.0
22/03:00pm 11.4 9.6 7.1 75 2.1 ESE 6 15 3 8 1030.2 1030.3 0.0
22/02:30pm 11.6 9.6 7.1 74 2.2 ESE 7 19 4 10 1030.1 - 0.0
22/02:00pm 11.7 9.4 7.4 75 2.1 ESE 9 20 5 11 1030.0 - 0.0
22/01:30pm 11.2 8.8 6.9 75 2.1 SE 9 15 5 8 1030.0 - 0.0
22/01:00pm 10.9 8.6 7.4 79 1.7 ESE 9 20 5 11 1030.3 - 0.0
22/12:30pm 10.6 8.2 6.9 78 1.8 E 9 19 5 10 1030.5 - 0.0
22/12:00pm 10.0 7.2 6.9 81 1.5 ESE 11 17 6 9 1031.0 1031.2 0.0
22/11:30am 9.5 6.2 6.6 82 1.4 E 13 19 7 10 1031.5 - 0.0
22/11:00am 9.5 7.0 6.4 81 1.5 ESE 9 17 5 9 1031.7 - 0.0
22/10:30am 9.1 6.2 6.4 83 1.3 SE 11 20 6 11 1031.5 - 0.0
22/10:00am 8.8 6.4 6.9 88 0.9 SE 9 17 5 9 1031.5 - 0.0
22/09:30am 8.4 5.5 6.7 89 0.8 SE 11 19 6 10 1031.1 - 0.0
22/09:00am 8.2 5.7 6.5 89 0.8 SSE 9 15 5 8 1031.0 1031.2 0.0
22/08:30am 7.9 5.4 6.4 90 0.7 SSE 9 24 5 13 1030.8 - 0.0
22/08:00am 7.4 5.2 6.3 93 0.5 S 7 13 4 7 1030.3 - 0.0
22/07:30am 6.6 4.3 5.6 93 0.5 SSE 7 13 4 7 1029.9 - 0.0
22/07:00am 6.4 3.7 5.8 96 0.3 SSE 9 13 5 7 1029.5 - 0.0
22/06:30am 6.3 4.1 6.0 98 0.1 SSE 7 11 4 6 1029.2 - 0.0
22/06:00am 6.5 4.0 6.4 99 0.0 SE 9 15 5 8 1028.9 1029.0 0.0
22/05:30am 6.4 4.2 6.3 99 0.0 SE 7 15 4 8 1028.7 - 0.0
22/05:00am 5.9 3.6 5.8 99 0.0 SSE 7 11 4 6 1028.4 - 0.0
22/04:30am 5.4 3.6 5.3 99 0.0 SE 4 9 2 5 1028.5 - 0.0
22/04:00am 4.3 3.0 4.0 98 0.1 CALM 0 0 0 0 1028.7 - 0.0
22/03:30am 4.9 3.7 4.5 97 0.2 CALM 0 0 0 0 1028.8 - 0.0
22/03:00am 5.7 3.5 5.1 96 0.3 SE 6 7 3 4 1028.8 1028.8 0.0
22/02:30am 6.4 4.2 6.3 99 0.0 SE 7 11 4 6 1028.9 - 0.0
22/02:00am 5.2 3.7 5.1 99 0.0 SE 2 6 1 3 1029.0 - 0.0
22/01:30am 4.8 3.6 4.4 97 0.2 CALM 0 0 0 0 1029.0 - 0.0
22/01:00am 5.4 3.9 4.8 96 0.3 SE 2 7 1 4 1029.1 - 0.0
22/12:30am 5.4 3.9 4.8 96 0.3 SSE 2 7 1 4 1029.0 - 0.0
22/12:00am 5.5 3.5 4.6 94 0.4 SE 4 7 2 4 1029.0 1029.1 0.0
 
Date/Time
CST
Temp
°C
App
Temp
°C
Dew
Point
Rel
Hum
%
Delta-T
°C
Wind Press
QNH
hPa
Press
MSL
hPa
Rain
since 9 am
mm
Dir
 
Spd
km/h
Gust
km/h
Spd
kts
Gust
kts
21/11:30pm 6.8 4.6 5.1 89 0.8 SSE 6 9 3 5 1028.9 - 0.0
21/11:00pm 7.3 5.1 5.1 86 1.0 SE 6 9 3 5 1029.2 - 0.0
21/10:30pm 7.7 5.3 5.3 85 1.1 SSE 7 17 4 9 1029.3 - 0.0
21/10:00pm 8.0 6.0 6.3 89 0.8 SE 6 9 3 5 1029.3 - 0.0
21/09:30pm 8.1 5.8 5.9 86 1.0 SSE 7 11 4 6 1029.1 - 0.0
21/09:00pm 8.1 5.6 6.6 90 0.7 S 9 13 5 7 1029.1 1029.2 0.0
21/08:30pm 8.1 6.0 6.7 91 0.7 S 7 13 4 7 1029.0 - 0.0
21/08:00pm 8.6 6.6 7.2 91 0.7 S 7 15 4 8 1028.8 - 0.0
21/07:30pm 8.4 6.0 7.2 92 0.6 S 9 13 5 7 1028.7 - 0.0
21/07:00pm 8.5 6.4 6.6 88 0.9 S 7 15 4 8 1028.5 - 0.0

Other Formats:

Comma delimited format used in spreadsheet applications
http://www.bom.gov.au/fwo/IDS60801/IDS60801.95667.axf

JavaScript Object Notation format (JSON) in row-major order
http://www.bom.gov.au/fwo/IDS60801/IDS60801.95667.json